sensor_id;sensor_type;location;lat;lon;timestamp;P1;durP1;ratioP1;P2;durP2;ratioP2
66593;SDS011;53450;42.584;23.366;2022-12-11T00:00:18;24.50;;;10.63;;
66593;SDS011;53450;42.584;23.366;2022-12-11T00:02:43;26.42;;;10.75;;
66593;SDS011;53450;42.584;23.366;2022-12-11T00:05:09;11.30;;;7.22;;
66593;SDS011;53450;42.584;23.366;2022-12-11T00:07:35;12.30;;;6.50;;
66593;SDS011;53450;42.584;23.366;2022-12-11T00:10:00;13.90;;;4.85;;
66593;SDS011;53450;42.584;23.366;2022-12-11T00:12:26;9.02;;;5.68;;
66593;SDS011;53450;42.584;23.366;2022-12-11T00:15:18;8.77;;;6.13;;
66593;SDS011;53450;42.584;23.366;2022-12-11T00:18:11;8.35;;;4.97;;
66593;SDS011;53450;42.584;23.366;2022-12-11T00:20:38;14.98;;;5.18;;
66593;SDS011;53450;42.584;23.366;2022-12-11T00:23:03;15.45;;;5.40;;
66593;SDS011;53450;42.584;23.366;2022-12-11T00:25:29;14.77;;;6.28;;
66593;SDS011;53450;42.584;23.366;2022-12-11T00:27:55;12.70;;;6.60;;
66593;SDS011;53450;42.584;23.366;2022-12-11T00:30:20;13.77;;;6.50;;
66593;SDS011;53450;42.584;23.366;2022-12-11T00:32:46;13.60;;;6.07;;
66593;SDS011;53450;42.584;23.366;2022-12-11T00:35:11;12.00;;;7.10;;
66593;SDS011;53450;42.584;23.366;2022-12-11T00:37:37;14.23;;;7.38;;
66593;SDS011;53450;42.584;23.366;2022-12-11T00:40:02;10.07;;;4.78;;
66593;SDS011;53450;42.584;23.366;2022-12-11T00:42:28;10.13;;;4.43;;
66593;SDS011;53450;42.584;23.366;2022-12-11T00:44:54;4.85;;;3.00;;
66593;SDS011;53450;42.584;23.366;2022-12-11T00:47:20;8.25;;;4.68;;
66593;SDS011;53450;42.584;23.366;2022-12-11T00:49:46;7.32;;;2.78;;
66593;SDS011;53450;42.584;23.366;2022-12-11T00:52:11;12.77;;;4.82;;
66593;SDS011;53450;42.584;23.366;2022-12-11T00:54:37;14.52;;;5.85;;
66593;SDS011;53450;42.584;23.366;2022-12-11T00:57:02;7.80;;;4.28;;
66593;SDS011;53450;42.584;23.366;2022-12-11T00:59:28;3.70;;;2.25;;
66593;SDS011;53450;42.584;23.366;2022-12-11T01:01:54;9.02;;;4.68;;
66593;SDS011;53450;42.584;23.366;2022-12-11T01:04:19;2.03;;;1.30;;
66593;SDS011;53450;42.584;23.366;2022-12-11T01:06:45;2.92;;;0.40;;
66593;SDS011;53450;42.584;23.366;2022-12-11T01:09:10;0.40;;;0.40;;
66593;SDS011;53450;42.584;23.366;2022-12-11T01:12:20;2.45;;;0.70;;
66593;SDS011;53450;42.584;23.366;2022-12-11T01:14:46;0.30;;;0.30;;
66593;SDS011;53450;42.584;23.366;2022-12-11T01:17:11;1.58;;;0.57;;
66593;SDS011;53450;42.584;23.366;2022-12-11T01:19:37;1.85;;;0.50;;
66593;SDS011;53450;42.584;23.366;2022-12-11T01:22:02;3.58;;;1.50;;
66593;SDS011;53450;42.584;23.366;2022-12-11T01:24:28;2.83;;;0.75;;
66593;SDS011;53450;42.584;23.366;2022-12-11T01:26:53;0.68;;;0.60;;
66593;SDS011;53450;42.584;23.366;2022-12-11T01:29:44;11.70;;;1.30;;
66593;SDS011;53450;42.584;23.366;2022-12-11T01:32:35;5.53;;;1.50;;
66593;SDS011;53450;42.584;23.366;2022-12-11T01:35:02;5.90;;;1.08;;
66593;SDS011;53450;42.584;23.366;2022-12-11T01:37:29;12.23;;;1.52;;
66593;SDS011;53450;42.584;23.366;2022-12-11T01:39:55;1.75;;;0.68;;
66593;SDS011;53450;42.584;23.366;2022-12-11T01:42:21;7.53;;;1.35;;
66593;SDS011;53450;42.584;23.366;2022-12-11T01:47:12;0.93;;;0.43;;
66593;SDS011;53450;42.584;23.366;2022-12-11T01:49:38;0.52;;;0.47;;
66593;SDS011;53450;42.584;23.366;2022-12-11T01:52:06;0.73;;;0.47;;
66593;SDS011;53450;42.584;23.366;2022-12-11T01:54:35;20.10;;;1.42;;
66593;SDS011;53450;42.584;23.366;2022-12-11T01:57:03;0.80;;;0.50;;
66593;SDS011;53450;42.584;23.366;2022-12-11T01:59:31;1.40;;;0.50;;
66593;SDS011;53450;42.584;23.366;2022-12-11T02:04:35;0.85;;;0.57;;
66593;SDS011;53450;42.584;23.366;2022-12-11T02:07:03;0.20;;;0.20;;
66593;SDS011;53450;42.584;23.366;2022-12-11T02:09:32;0.20;;;0.20;;
66593;SDS011;53450;42.584;23.366;2022-12-11T02:12:01;0.82;;;0.35;;
66593;SDS011;53450;42.584;23.366;2022-12-11T02:17:18;0.20;;;0.20;;
66593;SDS011;53450;42.584;23.366;2022-12-11T02:29:17;1.38;;;1.15;;
66593;SDS011;53450;42.584;23.366;2022-12-11T02:31:49;1.25;;;0.70;;
66593;SDS011;53450;42.584;23.366;2022-12-11T02:34:22;0.60;;;0.60;;
66593;SDS011;53450;42.584;23.366;2022-12-11T02:37:22;0.40;;;0.40;;
66593;SDS011;53450;42.584;23.366;2022-12-11T02:40:18;0.20;;;0.20;;
66593;SDS011;53450;42.584;23.366;2022-12-11T02:42:47;1.58;;;0.80;;
66593;SDS011;53450;42.584;23.366;2022-12-11T02:45:13;1.38;;;0.80;;
66593;SDS011;53450;42.584;23.366;2022-12-11T02:47:42;1.88;;;0.65;;
66593;SDS011;53450;42.584;23.366;2022-12-11T02:50:12;1.65;;;0.90;;
66593;SDS011;53450;42.584;23.366;2022-12-11T02:52:41;0.50;;;0.50;;
66593;SDS011;53450;42.584;23.366;2022-12-11T02:55:09;0.80;;;0.70;;
66593;SDS011;53450;42.584;23.366;2022-12-11T02:57:37;0.75;;;0.47;;
66593;SDS011;53450;42.584;23.366;2022-12-11T03:00:09;0.40;;;0.40;;
66593;SDS011;53450;42.584;23.366;2022-12-11T03:02:35;0.40;;;0.40;;
66593;SDS011;53450;42.584;23.366;2022-12-11T03:05:02;0.55;;;0.47;;
66593;SDS011;53450;42.584;23.366;2022-12-11T03:07:28;0.88;;;0.70;;
66593;SDS011;53450;42.584;23.366;2022-12-11T03:09:58;0.50;;;0.50;;
66593;SDS011;53450;42.584;23.366;2022-12-11T03:12:28;0.55;;;0.30;;
66593;SDS011;53450;42.584;23.366;2022-12-11T03:15:20;3.60;;;1.00;;
66593;SDS011;53450;42.584;23.366;2022-12-11T03:20:45;1.75;;;0.68;;
66593;SDS011;53450;42.584;23.366;2022-12-11T03:23:47;0.98;;;0.57;;
66593;SDS011;53450;42.584;23.366;2022-12-11T03:26:16;1.08;;;0.75;;
66593;SDS011;53450;42.584;23.366;2022-12-11T03:28:54;2.75;;;0.70;;
66593;SDS011;53450;42.584;23.366;2022-12-11T03:31:30;1.58;;;0.90;;
66593;SDS011;53450;42.584;23.366;2022-12-11T03:34:06;4.20;;;0.70;;
66593;SDS011;53450;42.584;23.366;2022-12-11T03:36:38;1.33;;;0.85;;
66593;SDS011;53450;42.584;23.366;2022-12-11T03:39:06;2.85;;;0.55;;
66593;SDS011;53450;42.584;23.366;2022-12-11T03:41:35;0.80;;;0.68;;
66593;SDS011;53450;42.584;23.366;2022-12-11T03:44:02;1.05;;;0.60;;
66593;SDS011;53450;42.584;23.366;2022-12-11T03:46:33;0.70;;;0.70;;
66593;SDS011;53450;42.584;23.366;2022-12-11T03:49:07;2.42;;;0.52;;
66593;SDS011;53450;42.584;23.366;2022-12-11T03:51:39;0.73;;;0.70;;
66593;SDS011;53450;42.584;23.366;2022-12-11T03:54:06;0.70;;;0.70;;
66593;SDS011;53450;42.584;23.366;2022-12-11T03:56:32;5.20;;;1.40;;
66593;SDS011;53450;42.584;23.366;2022-12-11T03:58:59;2.33;;;1.00;;
66593;SDS011;53450;42.584;23.366;2022-12-11T04:01:25;1.63;;;0.60;;
66593;SDS011;53450;42.584;23.366;2022-12-11T04:03:51;0.85;;;0.63;;
66593;SDS011;53450;42.584;23.366;2022-12-11T04:06:16;1.63;;;0.73;;
66593;SDS011;53450;42.584;23.366;2022-12-11T04:08:42;2.95;;;1.35;;
66593;SDS011;53450;42.584;23.366;2022-12-11T04:11:33;1.07;;;0.83;;
66593;SDS011;53450;42.584;23.366;2022-12-11T04:14:09;1.15;;;0.90;;
66593;SDS011;53450;42.584;23.366;2022-12-11T04:16:56;0.80;;;0.70;;
66593;SDS011;53450;42.584;23.366;2022-12-11T04:19:23;1.85;;;0.98;;
66593;SDS011;53450;42.584;23.366;2022-12-11T04:22:09;1.65;;;0.70;;
66593;SDS011;53450;42.584;23.366;2022-12-11T04:24:54;2.13;;;0.93;;
66593;SDS011;53450;42.584;23.366;2022-12-11T04:27:20;1.63;;;1.05;;
66593;SDS011;53450;42.584;23.366;2022-12-11T04:30:04;4.18;;;1.10;;
66593;SDS011;53450;42.584;23.366;2022-12-11T04:32:33;1.98;;;1.00;;
66593;SDS011;53450;42.584;23.366;2022-12-11T04:34:58;3.65;;;0.95;;
66593;SDS011;53450;42.584;23.366;2022-12-11T04:37:25;2.00;;;0.70;;
66593;SDS011;53450;42.584;23.366;2022-12-11T04:39:51;6.05;;;1.40;;
66593;SDS011;53450;42.584;23.366;2022-12-11T04:42:17;2.40;;;1.40;;
66593;SDS011;53450;42.584;23.366;2022-12-11T04:44:42;0.70;;;0.70;;
66593;SDS011;53450;42.584;23.366;2022-12-11T04:47:08;12.13;;;1.38;;
66593;SDS011;53450;42.584;23.366;2022-12-11T04:49:34;1.10;;;0.90;;
66593;SDS011;53450;42.584;23.366;2022-12-11T04:51:59;1.17;;;0.57;;
66593;SDS011;53450;42.584;23.366;2022-12-11T04:54:25;3.08;;;1.00;;
66593;SDS011;53450;42.584;23.366;2022-12-11T04:56:50;2.70;;;0.80;;
66593;SDS011;53450;42.584;23.366;2022-12-11T04:59:16;2.03;;;0.82;;
66593;SDS011;53450;42.584;23.366;2022-12-11T05:01:41;1.95;;;0.90;;
66593;SDS011;53450;42.584;23.366;2022-12-11T05:04:07;3.70;;;1.00;;
66593;SDS011;53450;42.584;23.366;2022-12-11T05:06:32;1.08;;;0.80;;
66593;SDS011;53450;42.584;23.366;2022-12-11T05:08:58;3.60;;;2.72;;
66593;SDS011;53450;42.584;23.366;2022-12-11T05:11:23;1.90;;;1.58;;
66593;SDS011;53450;42.584;23.366;2022-12-11T05:14:15;8.70;;;2.28;;
66593;SDS011;53450;42.584;23.366;2022-12-11T05:17:05;4.90;;;2.53;;
66593;SDS011;53450;42.584;23.366;2022-12-11T05:19:31;3.72;;;1.67;;
66593;SDS011;53450;42.584;23.366;2022-12-11T05:21:57;6.75;;;1.30;;
66593;SDS011;53450;42.584;23.366;2022-12-11T05:24:22;1.30;;;1.20;;
66593;SDS011;53450;42.584;23.366;2022-12-11T05:26:48;1.30;;;1.20;;
66593;SDS011;53450;42.584;23.366;2022-12-11T05:29:13;3.10;;;1.60;;
66593;SDS011;53450;42.584;23.366;2022-12-11T05:31:39;3.10;;;1.25;;
66593;SDS011;53450;42.584;23.366;2022-12-11T05:34:04;3.17;;;0.95;;
66593;SDS011;53450;42.584;23.366;2022-12-11T05:36:31;1.00;;;0.95;;
66593;SDS011;53450;42.584;23.366;2022-12-11T05:38:58;8.70;;;1.85;;
66593;SDS011;53450;42.584;23.366;2022-12-11T05:41:28;5.88;;;2.35;;
66593;SDS011;53450;42.584;23.366;2022-12-11T05:43:55;2.58;;;1.98;;
66593;SDS011;53450;42.584;23.366;2022-12-11T05:46:22;5.25;;;3.35;;
66593;SDS011;53450;42.584;23.366;2022-12-11T05:48:56;6.65;;;1.83;;
66593;SDS011;53450;42.584;23.366;2022-12-11T05:51:48;3.22;;;1.40;;
66593;SDS011;53450;42.584;23.366;2022-12-11T05:54:14;2.55;;;1.02;;
66593;SDS011;53450;42.584;23.366;2022-12-11T05:56:40;0.90;;;0.90;;
66593;SDS011;53450;42.584;23.366;2022-12-11T05:59:06;2.08;;;0.90;;
66593;SDS011;53450;42.584;23.366;2022-12-11T06:01:34;1.20;;;1.10;;
66593;SDS011;53450;42.584;23.366;2022-12-11T06:04:02;1.20;;;1.10;;
66593;SDS011;53450;42.584;23.366;2022-12-11T06:06:29;3.95;;;1.60;;
66593;SDS011;53450;42.584;23.366;2022-12-11T06:08:55;5.30;;;1.13;;
66593;SDS011;53450;42.584;23.366;2022-12-11T06:11:22;3.72;;;2.20;;
66593;SDS011;53450;42.584;23.366;2022-12-11T06:13:49;1.55;;;1.45;;
66593;SDS011;53450;42.584;23.366;2022-12-11T06:16:14;1.05;;;0.85;;
66593;SDS011;53450;42.584;23.366;2022-12-11T06:18:41;2.95;;;1.85;;
66593;SDS011;53450;42.584;23.366;2022-12-11T06:23:36;3.08;;;0.85;;
66593;SDS011;53450;42.584;23.366;2022-12-11T06:26:02;1.48;;;0.98;;
66593;SDS011;53450;42.584;23.366;2022-12-11T06:28:28;2.05;;;1.35;;
66593;SDS011;53450;42.584;23.366;2022-12-11T06:30:54;4.68;;;1.90;;
66593;SDS011;53450;42.584;23.366;2022-12-11T06:33:50;2.17;;;1.20;;
66593;SDS011;53450;42.584;23.366;2022-12-11T06:36:20;3.47;;;1.02;;
66593;SDS011;53450;42.584;23.366;2022-12-11T06:38:47;1.75;;;1.05;;
66593;SDS011;53450;42.584;23.366;2022-12-11T06:41:13;1.10;;;1.00;;
66593;SDS011;53450;42.584;23.366;2022-12-11T06:43:39;0.60;;;0.60;;
66593;SDS011;53450;42.584;23.366;2022-12-11T06:46:16;2.53;;;1.30;;
66593;SDS011;53450;42.584;23.366;2022-12-11T06:48:43;2.88;;;1.10;;
66593;SDS011;53450;42.584;23.366;2022-12-11T06:51:10;5.28;;;1.05;;
66593;SDS011;53450;42.584;23.366;2022-12-11T06:53:37;1.60;;;1.00;;
66593;SDS011;53450;42.584;23.366;2022-12-11T06:56:04;6.68;;;1.00;;
66593;SDS011;53450;42.584;23.366;2022-12-11T06:58:32;2.53;;;0.80;;
66593;SDS011;53450;42.584;23.366;2022-12-11T07:00:59;0.90;;;0.85;;
66593;SDS011;53450;42.584;23.366;2022-12-11T07:03:24;2.40;;;0.82;;
66593;SDS011;53450;42.584;23.366;2022-12-11T07:05:50;2.58;;;0.93;;
66593;SDS011;53450;42.584;23.366;2022-12-11T07:08:15;1.17;;;1.00;;
66593;SDS011;53450;42.584;23.366;2022-12-11T07:10:41;3.45;;;1.15;;
66593;SDS011;53450;42.584;23.366;2022-12-11T07:13:06;5.63;;;1.27;;
66593;SDS011;53450;42.584;23.366;2022-12-11T07:15:58;2.00;;;1.00;;
66593;SDS011;53450;42.584;23.366;2022-12-11T07:18:24;2.08;;;0.95;;
66593;SDS011;53450;42.584;23.366;2022-12-11T07:20:50;0.68;;;0.50;;
66593;SDS011;53450;42.584;23.366;2022-12-11T07:23:16;3.00;;;1.77;;
66593;SDS011;53450;42.584;23.366;2022-12-11T07:26:08;2.53;;;0.98;;
66593;SDS011;53450;42.584;23.366;2022-12-11T07:28:36;0.82;;;0.82;;
66593;SDS011;53450;42.584;23.366;2022-12-11T07:31:05;3.10;;;0.98;;
66593;SDS011;53450;42.584;23.366;2022-12-11T07:33:31;0.93;;;0.85;;
66593;SDS011;53450;42.584;23.366;2022-12-11T07:36:01;1.50;;;1.10;;
66593;SDS011;53450;42.584;23.366;2022-12-11T07:38:28;3.33;;;1.10;;
66593;SDS011;53450;42.584;23.366;2022-12-11T07:40:54;1.65;;;1.00;;
66593;SDS011;53450;42.584;23.366;2022-12-11T07:43:20;2.83;;;0.93;;
66593;SDS011;53450;42.584;23.366;2022-12-11T07:46:19;3.85;;;1.27;;
66593;SDS011;53450;42.584;23.366;2022-12-11T07:48:49;2.05;;;1.65;;
66593;SDS011;53450;42.584;23.366;2022-12-11T07:51:17;2.50;;;0.95;;
66593;SDS011;53450;42.584;23.366;2022-12-11T07:53:43;7.88;;;1.40;;
66593;SDS011;53450;42.584;23.366;2022-12-11T07:56:10;2.35;;;0.98;;
66593;SDS011;53450;42.584;23.366;2022-12-11T07:58:36;2.08;;;1.30;;
66593;SDS011;53450;42.584;23.366;2022-12-11T08:01:16;1.55;;;1.00;;
66593;SDS011;53450;42.584;23.366;2022-12-11T08:03:44;3.03;;;1.52;;
66593;SDS011;53450;42.584;23.366;2022-12-11T08:06:11;1.63;;;1.20;;
66593;SDS011;53450;42.584;23.366;2022-12-11T08:08:37;0.95;;;0.82;;
66593;SDS011;53450;42.584;23.366;2022-12-11T08:11:04;1.73;;;1.48;;
66593;SDS011;53450;42.584;23.366;2022-12-11T08:13:31;3.20;;;1.15;;
66593;SDS011;53450;42.584;23.366;2022-12-11T08:15:57;3.33;;;1.17;;
66593;SDS011;53450;42.584;23.366;2022-12-11T08:18:23;1.50;;;0.80;;
66593;SDS011;53450;42.584;23.366;2022-12-11T08:20:49;2.88;;;1.05;;
66593;SDS011;53450;42.584;23.366;2022-12-11T08:23:17;3.40;;;1.27;;
66593;SDS011;53450;42.584;23.366;2022-12-11T08:25:43;1.85;;;1.23;;
66593;SDS011;53450;42.584;23.366;2022-12-11T08:28:09;4.93;;;1.00;;
66593;SDS011;53450;42.584;23.366;2022-12-11T08:30:34;3.97;;;1.05;;
66593;SDS011;53450;42.584;23.366;2022-12-11T08:33:03;1.73;;;1.40;;
66593;SDS011;53450;42.584;23.366;2022-12-11T08:35:54;2.30;;;1.30;;
66593;SDS011;53450;42.584;23.366;2022-12-11T08:38:45;3.72;;;0.80;;
66593;SDS011;53450;42.584;23.366;2022-12-11T08:41:12;1.98;;;1.70;;
66593;SDS011;53450;42.584;23.366;2022-12-11T08:43:49;0.90;;;0.47;;
66593;SDS011;53450;42.584;23.366;2022-12-11T08:46:19;2.15;;;0.80;;
66593;SDS011;53450;42.584;23.366;2022-12-11T08:48:46;2.38;;;0.90;;
66593;SDS011;53450;42.584;23.366;2022-12-11T08:51:13;1.20;;;1.10;;
66593;SDS011;53450;42.584;23.366;2022-12-11T08:53:39;3.60;;;0.90;;
66593;SDS011;53450;42.584;23.366;2022-12-11T08:56:10;1.73;;;0.85;;
66593;SDS011;53450;42.584;23.366;2022-12-11T08:58:40;2.28;;;1.48;;
66593;SDS011;53450;42.584;23.366;2022-12-11T09:01:07;2.65;;;1.60;;
66593;SDS011;53450;42.584;23.366;2022-12-11T09:03:34;2.08;;;1.90;;
66593;SDS011;53450;42.584;23.366;2022-12-11T09:06:04;7.13;;;1.80;;
66593;SDS011;53450;42.584;23.366;2022-12-11T09:08:35;6.35;;;2.08;;
66593;SDS011;53450;42.584;23.366;2022-12-11T09:11:05;2.97;;;1.65;;
66593;SDS011;53450;42.584;23.366;2022-12-11T09:13:32;5.70;;;2.05;;
66593;SDS011;53450;42.584;23.366;2022-12-11T09:15:58;3.38;;;1.52;;
66593;SDS011;53450;42.584;23.366;2022-12-11T09:18:24;1.00;;;0.95;;
66593;SDS011;53450;42.584;23.366;2022-12-11T09:20:56;1.35;;;1.00;;
66593;SDS011;53450;42.584;23.366;2022-12-11T09:23:26;4.93;;;1.33;;
66593;SDS011;53450;42.584;23.366;2022-12-11T09:25:52;3.22;;;1.20;;
66593;SDS011;53450;42.584;23.366;2022-12-11T09:28:18;2.97;;;1.92;;
66593;SDS011;53450;42.584;23.366;2022-12-11T09:30:44;3.60;;;1.13;;
66593;SDS011;53450;42.584;23.366;2022-12-11T09:33:09;2.53;;;1.20;;
66593;SDS011;53450;42.584;23.366;2022-12-11T09:35:35;3.22;;;1.33;;
66593;SDS011;53450;42.584;23.366;2022-12-11T09:38:01;4.32;;;1.70;;
66593;SDS011;53450;42.584;23.366;2022-12-11T09:40:27;3.17;;;1.50;;
66593;SDS011;53450;42.584;23.366;2022-12-11T09:42:57;12.95;;;4.03;;
66593;SDS011;53450;42.584;23.366;2022-12-11T09:45:27;4.18;;;2.13;;
66593;SDS011;53450;42.584;23.366;2022-12-11T09:47:53;3.47;;;2.13;;
66593;SDS011;53450;42.584;23.366;2022-12-11T09:50:24;1.88;;;1.77;;
66593;SDS011;53450;42.584;23.366;2022-12-11T09:55:35;7.05;;;2.55;;
66593;SDS011;53450;42.584;23.366;2022-12-11T09:58:14;3.17;;;1.60;;
66593;SDS011;53450;42.584;23.366;2022-12-11T10:01:05;1.90;;;1.63;;
66593;SDS011;53450;42.584;23.366;2022-12-11T10:17:39;12.70;;;4.50;;
66593;SDS011;53450;42.584;23.366;2022-12-11T10:22:41;1.98;;;1.38;;
66593;SDS011;53450;42.584;23.366;2022-12-11T10:25:19;5.80;;;1.65;;
66593;SDS011;53450;42.584;23.366;2022-12-11T10:28:21;1.67;;;1.52;;
66593;SDS011;53450;42.584;23.366;2022-12-11T10:31:10;1.83;;;1.50;;
66593;SDS011;53450;42.584;23.366;2022-12-11T10:36:30;3.05;;;1.70;;
66593;SDS011;53450;42.584;23.366;2022-12-11T10:39:02;4.10;;;1.07;;
66593;SDS011;53450;42.584;23.366;2022-12-11T10:41:37;1.65;;;1.40;;
66593;SDS011;53450;42.584;23.366;2022-12-11T10:44:17;1.52;;;1.23;;
66593;SDS011;53450;42.584;23.366;2022-12-11T10:46:44;1.88;;;1.35;;
66593;SDS011;53450;42.584;23.366;2022-12-11T10:49:24;4.75;;;1.95;;
66593;SDS011;53450;42.584;23.366;2022-12-11T10:52:19;2.70;;;1.40;;
66593;SDS011;53450;42.584;23.366;2022-12-11T10:54:51;3.42;;;1.83;;
66593;SDS011;53450;42.584;23.366;2022-12-11T10:57:31;4.72;;;3.03;;
66593;SDS011;53450;42.584;23.366;2022-12-11T11:00:39;3.58;;;1.73;;
66593;SDS011;53450;42.584;23.366;2022-12-11T11:06:23;6.75;;;1.88;;
66593;SDS011;53450;42.584;23.366;2022-12-11T11:08:51;3.38;;;2.28;;
66593;SDS011;53450;42.584;23.366;2022-12-11T11:11:20;1.92;;;1.70;;
66593;SDS011;53450;42.584;23.366;2022-12-11T11:14:16;10.57;;;5.47;;
66593;SDS011;53450;42.584;23.366;2022-12-11T11:16:45;32.75;;;21.27;;
66593;SDS011;53450;42.584;23.366;2022-12-11T11:19:22;8.65;;;4.28;;
66593;SDS011;53450;42.584;23.366;2022-12-11T11:22:02;2.50;;;2.28;;
66593;SDS011;53450;42.584;23.366;2022-12-11T11:24:40;12.85;;;10.45;;
66593;SDS011;53450;42.584;23.366;2022-12-11T11:27:13;2.53;;;2.15;;
66593;SDS011;53450;42.584;23.366;2022-12-11T11:29:51;2.65;;;2.20;;
66593;SDS011;53450;42.584;23.366;2022-12-11T11:32:21;2.67;;;2.28;;
66593;SDS011;53450;42.584;23.366;2022-12-11T11:37:40;2.58;;;1.85;;
66593;SDS011;53450;42.584;23.366;2022-12-11T11:45:21;5.40;;;3.35;;
66593;SDS011;53450;42.584;23.366;2022-12-11T11:47:57;14.20;;;6.25;;
66593;SDS011;53450;42.584;23.366;2022-12-11T11:50:31;53.75;;;15.98;;
66593;SDS011;53450;42.584;23.366;2022-12-11T11:58:25;7.63;;;3.75;;
66593;SDS011;53450;42.584;23.366;2022-12-11T12:00:59;2.45;;;2.00;;
66593;SDS011;53450;42.584;23.366;2022-12-11T12:03:24;5.93;;;3.10;;
66593;SDS011;53450;42.584;23.366;2022-12-11T12:06:07;3.03;;;1.98;;
66593;SDS011;53450;42.584;23.366;2022-12-11T12:14:36;1.00;;;0.90;;
66593;SDS011;53450;42.584;23.366;2022-12-11T12:17:32;2.97;;;1.50;;
66593;SDS011;53450;42.584;23.366;2022-12-11T12:20:08;2.15;;;1.73;;
66593;SDS011;53450;42.584;23.366;2022-12-11T12:31:01;3.22;;;1.60;;
66593;SDS011;53450;42.584;23.366;2022-12-11T12:47:44;0.80;;;0.80;;
66593;SDS011;53450;42.584;23.366;2022-12-11T12:50:37;3.10;;;2.15;;
66593;SDS011;53450;42.584;23.366;2022-12-11T12:53:33;6.25;;;2.47;;
66593;SDS011;53450;42.584;23.366;2022-12-11T12:56:01;4.10;;;3.70;;
66593;SDS011;53450;42.584;23.366;2022-12-11T13:06:38;18.52;;;10.13;;
66593;SDS011;53450;42.584;23.366;2022-12-11T13:09:22;27.40;;;16.20;;
66593;SDS011;53450;42.584;23.366;2022-12-11T13:11:52;63.90;;;24.83;;
66593;SDS011;53450;42.584;23.366;2022-12-11T13:14:31;20.60;;;14.02;;
66593;SDS011;53450;42.584;23.366;2022-12-11T13:17:21;102.72;;;41.53;;
66593;SDS011;53450;42.584;23.366;2022-12-11T13:20:19;20.10;;;14.27;;
66593;SDS011;53450;42.584;23.366;2022-12-11T13:23:29;177.30;;;81.80;;
66593;SDS011;53450;42.584;23.366;2022-12-11T13:25:57;268.98;;;117.55;;
66593;SDS011;53450;42.584;23.366;2022-12-11T13:33:47;289.05;;;110.10;;
66593;SDS011;53450;42.584;23.366;2022-12-11T13:36:22;27.80;;;17.85;;
66593;SDS011;53450;42.584;23.366;2022-12-11T13:39:07;24.55;;;15.30;;
66593;SDS011;53450;42.584;23.366;2022-12-11T13:42:26;9.30;;;7.95;;
66593;SDS011;53450;42.584;23.366;2022-12-11T13:44:45;11.45;;;8.10;;
66593;SDS011;53450;42.584;23.366;2022-12-11T13:47:13;10.68;;;6.55;;
66593;SDS011;53450;42.584;23.366;2022-12-11T13:49:42;10.30;;;7.88;;
66593;SDS011;53450;42.584;23.366;2022-12-11T13:52:17;13.68;;;9.20;;
66593;SDS011;53450;42.584;23.366;2022-12-11T13:54:49;6.13;;;4.80;;
66593;SDS011;53450;42.584;23.366;2022-12-11T13:57:34;9.32;;;8.32;;
66593;SDS011;53450;42.584;23.366;2022-12-11T14:00:18;10.07;;;7.38;;
66593;SDS011;53450;42.584;23.366;2022-12-11T14:02:47;10.13;;;7.60;;
66593;SDS011;53450;42.584;23.366;2022-12-11T14:05:14;8.15;;;6.45;;
66593;SDS011;53450;42.584;23.366;2022-12-11T14:07:41;7.55;;;5.93;;
66593;SDS011;53450;42.584;23.366;2022-12-11T14:12:50;15.73;;;10.20;;
66593;SDS011;53450;42.584;23.366;2022-12-11T14:15:34;43.38;;;19.90;;
66593;SDS011;53450;42.584;23.366;2022-12-11T14:18:00;44.88;;;20.23;;
66593;SDS011;53450;42.584;23.366;2022-12-11T14:20:29;31.80;;;15.13;;
66593;SDS011;53450;42.584;23.366;2022-12-11T14:23:04;269.20;;;87.60;;
66593;SDS011;53450;42.584;23.366;2022-12-11T14:25:51;294.93;;;99.03;;
66593;SDS011;53450;42.584;23.366;2022-12-11T14:28:25;70.00;;;22.47;;
66593;SDS011;53450;42.584;23.366;2022-12-11T14:30:56;19.77;;;9.53;;
66593;SDS011;53450;42.584;23.366;2022-12-11T14:33:34;44.75;;;16.90;;
66593;SDS011;53450;42.584;23.366;2022-12-11T14:36:02;45.70;;;13.13;;
66593;SDS011;53450;42.584;23.366;2022-12-11T14:38:36;184.33;;;46.50;;
66593;SDS011;53450;42.584;23.366;2022-12-11T14:41:18;342.20;;;127.53;;
66593;SDS011;53450;42.584;23.366;2022-12-11T14:43:53;147.53;;;44.37;;
66593;SDS011;53450;42.584;23.366;2022-12-11T14:46:34;128.77;;;44.87;;
66593;SDS011;53450;42.584;23.366;2022-12-11T14:49:10;15.20;;;7.17;;
66593;SDS011;53450;42.584;23.366;2022-12-11T14:51:48;171.20;;;52.30;;
66593;SDS011;53450;42.584;23.366;2022-12-11T14:54:46;314.90;;;97.50;;
66593;SDS011;53450;42.584;23.366;2022-12-11T14:57:20;768.97;;;292.03;;
66593;SDS011;53450;42.584;23.366;2022-12-11T14:59:55;205.63;;;74.73;;
66593;SDS011;53450;42.584;23.366;2022-12-11T15:02:29;125.50;;;52.90;;
66593;SDS011;53450;42.584;23.366;2022-12-11T15:05:13;303.00;;;134.97;;
66593;SDS011;53450;42.584;23.366;2022-12-11T15:10:39;61.83;;;26.93;;
66593;SDS011;53450;42.584;23.366;2022-12-11T15:13:21;10.13;;;6.40;;
66593;SDS011;53450;42.584;23.366;2022-12-11T15:15:48;20.33;;;10.40;;
66593;SDS011;53450;42.584;23.366;2022-12-11T15:20:55;419.33;;;188.07;;
66593;SDS011;53450;42.584;23.366;2022-12-11T15:23:23;213.43;;;77.97;;
66593;SDS011;53450;42.584;23.366;2022-12-11T15:25:56;138.80;;;53.23;;
66593;SDS011;53450;42.584;23.366;2022-12-11T15:28:34;250.63;;;96.07;;
66593;SDS011;53450;42.584;23.366;2022-12-11T15:31:05;193.67;;;82.10;;
66593;SDS011;53450;42.584;23.366;2022-12-11T15:33:52;47.10;;;21.53;;
66593;SDS011;53450;42.584;23.366;2022-12-11T15:36:20;125.53;;;57.03;;
66593;SDS011;53450;42.584;23.366;2022-12-11T15:38:49;122.50;;;73.25;;
66593;SDS011;53450;42.584;23.366;2022-12-11T15:41:15;69.00;;;22.20;;
66593;SDS011;53450;42.584;23.366;2022-12-11T15:43:45;62.13;;;34.40;;
66593;SDS011;53450;42.584;23.366;2022-12-11T15:46:11;30.60;;;18.27;;
66593;SDS011;53450;42.584;23.366;2022-12-11T15:48:39;51.57;;;21.73;;
66593;SDS011;53450;42.584;23.366;2022-12-11T15:51:04;10.40;;;5.27;;
66593;SDS011;53450;42.584;23.366;2022-12-11T15:53:31;49.63;;;25.57;;
66593;SDS011;53450;42.584;23.366;2022-12-11T15:55:56;71.63;;;31.87;;
66593;SDS011;53450;42.584;23.366;2022-12-11T15:58:25;84.53;;;32.00;;
66593;SDS011;53450;42.584;23.366;2022-12-11T16:00:51;18.47;;;8.97;;
66593;SDS011;53450;42.584;23.366;2022-12-11T16:03:18;5.23;;;2.87;;
66593;SDS011;53450;42.584;23.366;2022-12-11T16:05:44;14.53;;;8.47;;
66593;SDS011;53450;42.584;23.366;2022-12-11T16:08:14;43.93;;;22.77;;
66593;SDS011;53450;42.584;23.366;2022-12-11T16:10:42;15.27;;;10.07;;
66593;SDS011;53450;42.584;23.366;2022-12-11T16:13:09;22.00;;;13.33;;
66593;SDS011;53450;42.584;23.366;2022-12-11T16:15:36;19.10;;;8.33;;
66593;SDS011;53450;42.584;23.366;2022-12-11T16:18:04;12.50;;;7.87;;
66593;SDS011;53450;42.584;23.366;2022-12-11T16:20:32;28.50;;;17.03;;
66593;SDS011;53450;42.584;23.366;2022-12-11T16:22:59;22.90;;;13.43;;
66593;SDS011;53450;42.584;23.366;2022-12-11T16:25:25;30.10;;;16.93;;
66593;SDS011;53450;42.584;23.366;2022-12-11T16:27:53;38.27;;;17.90;;
66593;SDS011;53450;42.584;23.366;2022-12-11T16:30:21;37.63;;;18.50;;
66593;SDS011;53450;42.584;23.366;2022-12-11T16:32:47;43.53;;;19.13;;
66593;SDS011;53450;42.584;23.366;2022-12-11T16:35:13;9.93;;;6.93;;
66593;SDS011;53450;42.584;23.366;2022-12-11T16:37:38;19.43;;;11.87;;
66593;SDS011;53450;42.584;23.366;2022-12-11T16:40:04;10.43;;;6.40;;
66593;SDS011;53450;42.584;23.366;2022-12-11T16:42:33;7.93;;;4.87;;
66593;SDS011;53450;42.584;23.366;2022-12-11T16:45:03;12.27;;;7.73;;